Terminal Aerodrome Forecast
Issued by NWS

Home | Current Version | Previous Version | Text Only | Print | Product List | Glossary Off
Versions: 1 2 3 4 5 6 7 8 9 10 11 12 13 14 15

000
FTUS43 KABR 221100
TAFATY
TAF
KATY 221129Z 2212/2312 VRB05KT P6SM SCT200
     FM221700 15013KT P6SM SKC
     FM222100 15018G27KT P6SM BKN100=

USA.gov is the U.S. government's official web portal to all federal, state and local government web resources and services.